Time;durP1;ratioP1;P1;durP2;ratioP2;P2;SDS_P1;SDS_P2;PMS_P1;PMS_P2;Temp;Humidity;BMP_temperature;BMP_pressure;BME280_temperature;BME280_humidity;BME280_pressure;Samples;Min_cycle;Max_cycle;Signal;HPM_P1;HPM_P2
2022/07/09 00:01:01;;;;;;;;;;;15.80;99.90;;;;;;5095469;28;20429;-81
2022/07/09 00:03:28;;;;;;;;;;;15.70;99.90;;;;;;5098106;28;19959;-81
2022/07/09 00:05:55;;;;;;;;;;;15.70;99.90;;;;;;5115485;28;20356;-81
2022/07/09 00:08:22;;;;;;;;;;;15.60;99.90;;;;;;5114490;28;19923;-80
2022/07/09 00:10:50;;;;;;;;;;;15.60;99.90;;;;;;5100759;28;20311;-82
2022/07/09 00:13:17;;;;;;;;;;;15.60;99.90;;;;;;5096377;28;20395;-81
2022/07/09 00:15:44;;;;;;;;;;;15.60;99.90;;;;;;5095945;28;19935;-81
2022/07/09 00:18:11;;;;;;;;;;;15.50;99.90;;;;;;5095925;28;20441;-81
2022/07/09 00:20:38;;;;;;;;;;;15.50;99.90;;;;;;5095320;28;19928;-82
2022/07/09 00:23:05;;;;;;;;;;;15.50;99.90;;;;;;5097502;28;19924;-82
2022/07/09 00:25:31;;;;;;;;;;;15.50;99.90;;;;;;5096141;28;19977;-82
2022/07/09 00:28:00;;;;;;;;;;;15.50;99.90;;;;;;5096226;28;19924;-82
2022/07/09 00:30:27;;;;;;;;;;;15.40;99.90;;;;;;5095058;28;19924;-81
2022/07/09 00:32:54;;;;;;;;;;;15.40;99.90;;;;;;5095253;28;19927;-81
2022/07/09 00:35:21;;;;;;;;;;;15.40;99.90;;;;;;5097111;28;20342;-80
2022/07/09 00:37:48;;;;;;;;;;;15.30;99.90;;;;;;5095108;28;19920;-81
2022/07/09 00:40:15;;;;;;;;;;;15.30;99.90;;;;;;5095459;28;19935;-81
2022/07/09 00:42:42;;;;;;;;;;;15.30;99.90;;;;;;5096353;28;19919;-81
2022/07/09 00:45:10;;;;;;;;;;;15.20;99.90;;;;;;5097474;28;19930;-81
2022/07/09 00:47:37;;;;;;;;;;;15.20;99.90;;;;;;5095118;28;19924;-81
2022/07/09 00:50:05;;;;;;;;;;;15.10;99.90;;;;;;5094731;28;19928;-79
2022/07/09 00:52:32;;;;;;;;;;;15.10;99.90;;;;;;5091072;28;19926;-78
2022/07/09 00:55:00;;;;;;;;;;;15.10;99.90;;;;;;5090417;28;19924;-78
2022/07/09 00:57:28;;;;;;;;;;;15.00;99.90;;;;;;5089524;28;19978;-78
2022/07/09 00:59:55;;;;;;;;;;;15.10;99.90;;;;;;5089329;28;19978;-78
2022/07/09 01:02:24;;;;;;;;;;;15.00;99.90;;;;;;5089669;28;19924;-78
2022/07/09 01:04:51;;;;;;;;;;;15.00;99.90;;;;;;5090269;28;19995;-79
2022/07/09 01:07:18;;;;;;;;;;;15.00;99.90;;;;;;5090231;28;19935;-78
2022/07/09 01:09:45;;;;;;;;;;;15.00;99.90;;;;;;5089941;28;20020;-78
2022/07/09 01:12:13;;;;;;;;;;;14.90;99.90;;;;;;5089648;28;19924;-78
2022/07/09 01:14:39;;;;;;;;;;;14.90;99.90;;;;;;5092388;28;20078;-78
2022/07/09 01:17:07;;;;;;;;;;;14.90;99.90;;;;;;5091247;28;20652;-78
2022/07/09 01:19:35;;;;;;;;;;;14.90;99.90;;;;;;5099166;28;20557;-78
2022/07/09 01:22:04;;;;;;;;;;;14.80;99.90;;;;;;5112603;28;20383;-80
2022/07/09 01:24:31;;;;;;;;;;;14.80;99.90;;;;;;5111441;28;20391;-78
2022/07/09 01:26:58;;;;;;;;;;;14.80;99.90;;;;;;5111561;28;19924;-79
2022/07/09 01:29:24;;;;;;;;;;;14.80;99.90;;;;;;5113215;28;19941;-80
2022/07/09 01:31:51;;;;;;;;;;;14.80;99.90;;;;;;5115383;28;19935;-81
2022/07/09 01:34:18;;;;;;;;;;;14.70;99.90;;;;;;5108686;28;20012;-81
2022/07/09 01:36:45;;;;;;;;;;;14.70;99.90;;;;;;5095654;28;19985;-82
2022/07/09 01:39:13;;;;;;;;;;;14.70;99.90;;;;;;5095505;28;19927;-82
2022/07/09 01:41:40;;;;;;;;;;;14.70;99.90;;;;;;5094862;28;19920;-83
2022/07/09 01:44:08;;;;;;;;;;;14.70;99.90;;;;;;5094648;28;20048;-82
2022/07/09 01:46:38;;;;;;;;;;;14.70;99.90;;;;;;5094597;28;19920;-81
2022/07/09 01:49:10;;;;;;;;;;;14.70;99.90;;;;;;5094531;28;19980;-82
2022/07/09 01:51:38;;;;;;;;;;;14.70;99.90;;;;;;5094553;28;20122;-82
2022/07/09 01:54:05;;;;;;;;;;;14.80;99.90;;;;;;5095003;28;19932;-81
2022/07/09 01:56:34;;;;;;;;;;;14.80;99.90;;;;;;5095397;28;19927;-81
2022/07/09 01:59:01;;;;;;;;;;;14.90;99.90;;;;;;5096656;28;20044;-82
2022/07/09 02:01:28;;;;;;;;;;;14.90;99.90;;;;;;5095022;28;20003;-82
2022/07/09 02:03:55;;;;;;;;;;;14.90;99.90;;;;;;5092689;28;19920;-76
2022/07/09 02:06:22;;;;;;;;;;;14.90;99.90;;;;;;5093400;28;19927;-81
2022/07/09 02:08:52;;;;;;;;;;;15.00;99.90;;;;;;5093179;28;19924;-77
2022/07/09 02:11:19;;;;;;;;;;;15.00;99.90;;;;;;5091286;28;19927;-79
2022/07/09 02:13:47;;;;;;;;;;;15.00;99.90;;;;;;5091113;28;20439;-78
2022/07/09 02:16:14;;;;;;;;;;;15.00;99.90;;;;;;5092088;28;19924;-78
2022/07/09 02:18:41;;;;;;;;;;;15.00;99.90;;;;;;5089510;28;20387;-78
2022/07/09 02:21:08;;;;;;;;;;;15.00;99.90;;;;;;5090384;28;19931;-78
2022/07/09 02:23:35;;;;;;;;;;;15.00;99.90;;;;;;5092823;28;19989;-80
2022/07/09 02:26:01;;;;;;;;;;;15.00;99.90;;;;;;5090977;28;20038;-81
2022/07/09 02:28:29;;;;;;;;;;;15.10;99.90;;;;;;5094086;28;19946;-81
2022/07/09 02:30:57;;;;;;;;;;;15.10;99.90;;;;;;5096970;28;19977;-81
2022/07/09 02:33:24;;;;;;;;;;;15.10;99.90;;;;;;5099437;28;19924;-81
2022/07/09 02:35:51;;;;;;;;;;;15.20;99.90;;;;;;5100865;28;20026;-81
2022/07/09 02:38:21;;;;;;;;;;;15.30;99.90;;;;;;5100990;28;20027;-82
2022/07/09 02:40:48;;;;;;;;;;;15.30;99.90;;;;;;5098187;28;19952;-82
2022/07/09 02:43:14;;;;;;;;;;;15.30;99.90;;;;;;5100115;28;20383;-79
2022/07/09 02:45:41;;;;;;;;;;;15.40;99.90;;;;;;5099283;28;20553;-79
2022/07/09 02:48:10;;;;;;;;;;;15.40;99.90;;;;;;5100411;28;19924;-79
2022/07/09 02:50:37;;;;;;;;;;;15.50;99.90;;;;;;5101339;28;20005;-81
2022/07/09 02:53:04;;;;;;;;;;;15.50;99.90;;;;;;5099875;28;19920;-81
2022/07/09 02:55:31;;;;;;;;;;;15.60;99.90;;;;;;5100290;28;19928;-80
2022/07/09 02:57:58;;;;;;;;;;;15.60;99.90;;;;;;5097982;28;19931;-80
2022/07/09 03:00:25;;;;;;;;;;;15.70;99.90;;;;;;5088595;28;19924;-81
2022/07/09 03:02:51;;;;;;;;;;;15.70;99.90;;;;;;5097275;28;20482;-81
2022/07/09 03:05:23;;;;;;;;;;;15.80;99.90;;;;;;5097784;28;19935;-81
2022/07/09 03:07:50;;;;;;;;;;;15.80;99.90;;;;;;5098599;28;19930;-80
2022/07/09 03:10:17;;;;;;;;;;;15.80;99.90;;;;;;5099327;28;19968;-81
2022/07/09 03:12:44;;;;;;;;;;;15.90;99.90;;;;;;5098554;28;20401;-81
2022/07/09 03:15:13;;;;;;;;;;;15.90;99.90;;;;;;5098701;28;19963;-81
2022/07/09 03:17:40;;;;;;;;;;;15.90;99.90;;;;;;5099525;28;19926;-80
2022/07/09 03:20:07;;;;;;;;;;;16.00;99.90;;;;;;5099081;28;19935;-81
2022/07/09 03:22:35;;;;;;;;;;;16.00;99.90;;;;;;5108048;28;19924;-81
2022/07/09 03:25:02;;;;;;;;;;;16.00;99.90;;;;;;5098143;28;19973;-81
2022/07/09 03:27:29;;;;;;;;;;;16.00;99.90;;;;;;5115168;28;19920;-82
2022/07/09 03:29:56;;;;;;;;;;;16.00;99.90;;;;;;5115015;28;19998;-82
2022/07/09 03:32:24;;;;;;;;;;;16.00;99.90;;;;;;5112105;28;19939;-80
2022/07/09 03:34:52;;;;;;;;;;;16.00;99.90;;;;;;5096454;28;20015;-80
2022/07/09 03:37:19;;;;;;;;;;;16.00;99.90;;;;;;5096071;28;19923;-80
2022/07/09 03:39:47;;;;;;;;;;;16.10;99.90;;;;;;5097172;28;19943;-81
2022/07/09 03:42:14;;;;;;;;;;;16.10;99.90;;;;;;5103494;28;19924;-81
2022/07/09 03:44:41;;;;;;;;;;;16.10;99.90;;;;;;5095700;28;20265;-80
2022/07/09 03:47:08;;;;;;;;;;;16.10;99.90;;;;;;5096454;28;19920;-80
2022/07/09 03:49:35;;;;;;;;;;;16.10;99.90;;;;;;5098669;28;19931;-80
2022/07/09 03:52:02;;;;;;;;;;;16.10;99.90;;;;;;5097467;28;19920;-78
2022/07/09 03:54:29;;;;;;;;;;;16.10;99.90;;;;;;5091041;28;19963;-76
2022/07/09 03:56:57;;;;;;;;;;;16.20;99.90;;;;;;5090205;28;20289;-76
2022/07/09 03:59:24;;;;;;;;;;;16.20;99.90;;;;;;5091324;28;19920;-78
2022/07/09 04:01:51;;;;;;;;;;;16.30;99.90;;;;;;5090657;28;19920;-77
2022/07/09 04:04:19;;;;;;;;;;;16.20;99.90;;;;;;5089792;28;19984;-77
2022/07/09 04:06:46;;;;;;;;;;;16.30;99.90;;;;;;5090459;28;20027;-76
2022/07/09 04:09:16;;;;;;;;;;;16.30;99.90;;;;;;5090963;28;19981;-76
2022/07/09 04:11:43;;;;;;;;;;;16.20;99.90;;;;;;5089590;28;19920;-76
2022/07/09 04:14:12;;;;;;;;;;;16.20;99.90;;;;;;5089994;28;19923;-76
2022/07/09 04:16:38;;;;;;;;;;;16.10;99.90;;;;;;5089816;28;19977;-76
2022/07/09 04:19:05;;;;;;;;;;;16.10;99.90;;;;;;5089594;28;20068;-76
2022/07/09 04:21:32;;;;;;;;;;;16.10;99.90;;;;;;5089554;28;20578;-76
2022/07/09 04:23:59;;;;;;;;;;;16.10;99.90;;;;;;5089631;28;19946;-76
2022/07/09 04:26:26;;;;;;;;;;;16.00;99.90;;;;;;5089130;28;19981;-76
2022/07/09 04:28:53;;;;;;;;;;;16.00;99.90;;;;;;5089989;28;19920;-76
2022/07/09 04:31:21;;;;;;;;;;;16.00;99.90;;;;;;5088348;28;19988;-76
2022/07/09 04:33:48;;;;;;;;;;;16.00;99.90;;;;;;5089707;28;19928;-76
2022/07/09 04:36:16;;;;;;;;;;;16.00;99.90;;;;;;5080277;28;20426;-73
2022/07/09 04:38:44;;;;;;;;;;;16.00;99.90;;;;;;5091765;28;20307;-76
2022/07/09 04:41:11;;;;;;;;;;;16.10;99.90;;;;;;5089921;28;19924;-73
2022/07/09 04:43:38;;;;;;;;;;;16.30;99.90;;;;;;5077540;28;19934;-80
2022/07/09 04:46:05;;;;;;;;;;;16.50;99.90;;;;;;5070320;28;19924;-76
2022/07/09 04:48:34;;;;;;;;;;;16.80;99.90;;;;;;5069064;28;19928;-74
2022/07/09 04:51:01;;;;;;;;;;;16.90;99.90;;;;;;5088159;28;20398;-73
2022/07/09 04:53:28;;;;;;;;;;;16.90;99.90;;;;;;5105540;28;19938;-75
2022/07/09 04:55:55;;;;;;;;;;;16.90;99.90;;;;;;5102404;28;19924;-74
2022/07/09 04:58:22;;;;;;;;;;;16.90;99.90;;;;;;5089822;28;19936;-73
2022/07/09 05:00:49;;;;;;;;;;;17.00;99.90;;;;;;5088720;28;19964;-74
2022/07/09 05:03:16;;;;;;;;;;;17.10;99.90;;;;;;5088418;28;19920;-74
2022/07/09 05:05:44;;;;;;;;;;;17.10;99.90;;;;;;5089225;28;19942;-75
2022/07/09 05:08:11;;;;;;;;;;;17.10;99.90;;;;;;5089435;28;20307;-75
2022/07/09 05:10:38;;;;;;;;;;;17.20;99.90;;;;;;5088283;28;20675;-75
2022/07/09 05:13:05;;;;;;;;;;;17.30;99.90;;;;;;5089027;28;19946;-74
2022/07/09 05:15:32;;;;;;;;;;;17.30;99.90;;;;;;5089367;28;19965;-75
2022/07/09 05:17:59;;;;;;;;;;;17.40;99.90;;;;;;5088374;28;19924;-75
2022/07/09 05:20:26;;;;;;;;;;;17.50;99.90;;;;;;5088129;28;19955;-75
2022/07/09 05:22:54;;;;;;;;;;;17.70;99.90;;;;;;5088000;28;19985;-75
2022/07/09 05:25:22;;;;;;;;;;;17.80;99.90;;;;;;5088645;28;19924;-75
2022/07/09 05:27:49;;;;;;;;;;;18.00;99.90;;;;;;5088405;28;20031;-75
2022/07/09 05:30:16;;;;;;;;;;;18.10;99.90;;;;;;5099277;28;19928;-74
2022/07/09 05:32:43;;;;;;;;;;;18.30;99.90;;;;;;5097788;28;19924;-75
2022/07/09 05:35:10;;;;;;;;;;;18.60;99.90;;;;;;5088216;28;19931;-74
2022/07/09 05:37:41;;;;;;;;;;;18.90;99.90;;;;;;5089218;28;19920;-75
2022/07/09 05:40:10;;;;;;;;;;;19.40;99.90;;;;;;5089930;28;19948;-77
2022/07/09 05:42:37;;;;;;;;;;;19.70;99.90;;;;;;5092094;28;20336;-78
2022/07/09 05:45:04;;;;;;;;;;;20.10;99.90;;;;;;5091182;28;19923;-80
2022/07/09 05:47:31;;;;;;;;;;;20.30;99.90;;;;;;5090189;28;19924;-73
2022/07/09 05:49:58;;;;;;;;;;;20.50;99.90;;;;;;5101199;28;19923;-81
2022/07/09 05:52:28;;;;;;;;;;;20.80;99.90;;;;;;5108585;28;20387;-74
2022/07/09 05:54:55;;;;;;;;;;;20.90;99.90;;;;;;5108990;28;19923;-74
2022/07/09 05:57:23;;;;;;;;;;;21.20;99.90;;;;;;5096363;28;20445;-79
2022/07/09 05:59:50;;;;;;;;;;;22.10;99.90;;;;;;5092739;28;19992;-79
2022/07/09 06:02:18;;;;;;;;;;;22.10;99.90;;;;;;5089798;28;19924;-73
2022/07/09 06:04:47;;;;;;;;;;;22.60;99.90;;;;;;5089447;28;20475;-73
2022/07/09 06:07:17;;;;;;;;;;;23.40;99.90;;;;;;5106824;28;19923;-71
2022/07/09 06:09:45;;;;;;;;;;;24.60;99.90;;;;;;5100975;28;19931;-74
2022/07/09 06:12:12;;;;;;;;;;;26.00;99.90;;;;;;5089836;28;19924;-75
2022/07/09 06:14:40;;;;;;;;;;;27.50;99.90;;;;;;5101526;28;19949;-76
2022/07/09 06:17:08;;;;;;;;;;;27.80;99.90;;;;;;5092053;28;19923;-76
2022/07/09 06:19:35;;;;;;;;;;;29.40;99.90;;;;;;5109334;28;19924;-76
2022/07/09 06:22:02;;;;;;;;;;;29.90;99.90;;;;;;5108767;28;19924;-79
2022/07/09 06:24:30;;;;;;;;;;;30.30;99.90;;;;;;5110983;28;20555;-77
2022/07/09 06:26:57;;;;;;;;;;;30.60;99.90;;;;;;5110188;28;19974;-78
2022/07/09 06:29:24;;;;;;;;;;;31.30;99.90;;;;;;5094768;28;19928;-78
2022/07/09 06:31:52;;;;;;;;;;;31.30;99.90;;;;;;5088363;28;19920;-77
2022/07/09 06:34:19;;;;;;;;;;;30.90;99.90;;;;;;5089995;28;20019;-76
2022/07/09 06:36:46;;;;;;;;;;;30.60;99.90;;;;;;5089469;28;20038;-77
2022/07/09 06:42:03;;;;;;;;;;;29.50;99.90;;;;;;5088457;28;19949;-77
2022/07/09 06:44:30;;;;;;;;;;;28.80;99.90;;;;;;5088494;28;19923;-76
2022/07/09 06:46:59;;;;;;;;;;;28.30;99.90;;;;;;5089591;28;19959;-76
2022/07/09 06:49:26;;;;;;;;;;;27.90;99.90;;;;;;5088015;28;19926;-76
2022/07/09 06:51:53;;;;;;;;;;;27.40;99.90;;;;;;5084707;28;19978;-76
2022/07/09 06:54:22;;;;;;;;;;;27.20;99.90;;;;;;5089693;28;20010;-77
2022/07/09 06:56:57;;;;;;;;;;;27.50;99.90;;;;;;5089416;28;20019;-77
2022/07/09 07:02:25;;;;;;;;;;;28.80;99.90;;;;;;5067374;28;19932;-76
2022/07/09 07:05:06;;;;;;;;;;;29.40;99.90;;;;;;5051835;28;20400;-76
2022/07/09 07:07:42;;;;;;;;;;;29.90;99.90;;;;;;5068061;28;19956;-76
2022/07/09 07:10:12;;;;;;;;;;;30.30;99.90;;;;;;5070400;28;20377;-79
2022/07/09 07:12:55;;;;;;;;;;;30.50;99.90;;;;;;5069547;28;19923;-82
2022/07/09 07:15:53;;;;;;;;;;;29.70;99.90;;;;;;5075098;28;20372;-80
2022/07/09 07:18:28;;;;;;;;;;;30.50;99.90;;;;;;5077638;28;20345;-79
2022/07/09 07:20:57;;;;;;;;;;;30.60;99.90;;;;;;5095901;28;19946;-79
2022/07/09 07:23:31;;;;;;;;;;;31.00;99.90;;;;;;5076481;28;20299;-80
2022/07/09 07:26:04;;;;;;;;;;;32.40;99.60;;;;;;5073043;28;19920;-81
2022/07/09 07:28:33;;;;;;;;;;;32.80;98.50;;;;;;5076946;28;20011;-77
2022/07/09 07:31:12;;;;;;;;;;;32.80;97.30;;;;;;5074677;28;20299;-76
2022/07/09 07:33:41;;;;;;;;;;;32.80;96.40;;;;;;5074235;28;19989;-76
2022/07/09 07:36:14;;;;;;;;;;;32.70;96.40;;;;;;5074147;28;19924;-75
2022/07/09 07:38:47;;;;;;;;;;;32.10;97.40;;;;;;5092549;28;20368;-75
2022/07/09 07:44:14;;;;;;;;;;;31.80;95.70;;;;;;5075156;28;19965;-79
2022/07/09 07:46:55;;;;;;;;;;;31.40;93.60;;;;;;5081584;28;19951;-79
2022/07/09 07:52:15;;;;;;;;;;;31.10;94.10;;;;;;5048069;28;20399;-79
2022/07/09 07:54:49;;;;;;;;;;;31.10;94.40;;;;;;5051200;28;19925;-79
2022/07/09 07:57:17;;;;;;;;;;;31.20;94.30;;;;;;5045893;28;19925;-80
2022/07/09 07:59:47;;;;;;;;;;;31.70;95.60;;;;;;5561107;22;19927;-79
2022/07/09 08:02:15;;;;;;;;;;;31.90;94.20;;;;;;5067311;28;19921;-80
2022/07/09 08:04:46;;;;;;;;;;;32.40;92.90;;;;;;5070220;28;20587;-79
2022/07/09 08:07:24;;;;;;;;;;;32.40;92.00;;;;;;5082239;28;19920;-80
2022/07/09 08:09:56;;;;;;;;;;;32.40;92.50;;;;;;5092018;28;19920;-79
2022/07/09 08:12:26;;;;;;;;;;;32.30;91.80;;;;;;5070481;28;19940;-79
2022/07/09 08:14:55;;;;;;;;;;;32.40;90.60;;;;;;5085409;28;19924;-79
2022/07/09 08:17:25;;;;;;;;;;;32.10;90.10;;;;;;5091353;28;19930;-79
2022/07/09 08:19:56;;;;;;;;;;;31.60;89.20;;;;;;5092854;28;19924;-78
2022/07/09 08:22:32;;;;;;;;;;;30.90;89.50;;;;;;5092209;28;19992;-79
2022/07/09 08:25:27;;;;;;;;;;;30.20;90.20;;;;;;5092464;28;19924;-79
2022/07/09 08:27:56;;;;;;;;;;;29.90;90.90;;;;;;5091909;28;19931;-79
2022/07/09 08:30:56;;;;;;;;;;;29.80;91.40;;;;;;5085719;28;20024;-79
2022/07/09 08:33:34;;;;;;;;;;;29.50;90.80;;;;;;5090232;28;19930;-79
2022/07/09 08:36:09;;;;;;;;;;;29.10;91.40;;;;;;5099374;28;20029;-78
2022/07/09 08:38:51;;;;;;;;;;;29.10;92.70;;;;;;5074483;28;20240;-77
2022/07/09 08:41:29;;;;;;;;;;;29.20;92.50;;;;;;5099081;28;19954;-82
2022/07/09 08:44:01;;;;;;;;;;;29.20;91.90;;;;;;5094201;28;20291;-78
2022/07/09 08:46:38;;;;;;;;;;;29.10;92.20;;;;;;5086092;28;20357;-78
2022/07/09 08:51:51;;;;;;;;;;;29.70;92.50;;;;;;5087240;22;20236;-79
2022/07/09 08:54:29;;;;;;;;;;;30.20;92.30;;;;;;5063106;28;19920;-78
2022/07/09 08:57:08;;;;;;;;;;;30.70;92.00;;;;;;5052544;28;19925;-79
2022/07/09 08:59:39;;;;;;;;;;;31.60;91.40;;;;;;5047572;28;20407;-79
2022/07/09 09:02:13;;;;;;;;;;;31.70;90.30;;;;;;5030702;28;19921;-78
2022/07/09 09:04:48;;;;;;;;;;;32.10;90.50;;;;;;5029589;28;19980;-80
2022/07/09 09:07:21;;;;;;;;;;;32.60;89.80;;;;;;5033547;28;19935;-79
2022/07/09 09:09:53;;;;;;;;;;;33.00;88.30;;;;;;5027323;28;22198;-80
2022/07/09 09:12:31;;;;;;;;;;;33.10;86.00;;;;;;5031078;28;20012;-79
2022/07/09 09:15:15;;;;;;;;;;;33.40;84.40;;;;;;5032777;28;19952;-80
2022/07/09 09:17:46;;;;;;;;;;;34.00;84.40;;;;;;5032441;28;20035;-79
2022/07/09 09:20:20;;;;;;;;;;;34.00;83.40;;;;;;5031416;28;19925;-80
2022/07/09 09:23:02;;;;;;;;;;;34.10;80.10;;;;;;5032839;28;19925;-79
2022/07/09 09:25:36;;;;;;;;;;;33.80;80.40;;;;;;5022532;28;19929;-79
2022/07/09 09:28:14;;;;;;;;;;;33.50;80.50;;;;;;5029717;28;20293;-79
2022/07/09 09:30:49;;;;;;;;;;;33.40;78.20;;;;;;5032239;28;20384;-79
2022/07/09 09:33:18;;;;;;;;;;;33.00;76.00;;;;;;5032035;28;19928;-79
2022/07/09 09:35:49;;;;;;;;;;;32.60;77.80;;;;;;5029895;28;19952;-79
2022/07/09 09:40:55;;;;;;;;;;;32.40;78.50;;;;;;5045117;28;19925;-75
2022/07/09 09:43:23;;;;;;;;;;;32.30;79.30;;;;;;5032002;28;19951;-76
2022/07/09 09:45:52;;;;;;;;;;;32.40;78.80;;;;;;5063875;28;20368;-76
2022/07/09 09:48:19;;;;;;;;;;;32.60;79.20;;;;;;5055923;28;19936;-76
2022/07/09 09:50:48;;;;;;;;;;;32.50;77.80;;;;;;5060031;28;19931;-76
2022/07/09 09:53:15;;;;;;;;;;;32.00;77.60;;;;;;5058370;28;19939;-77
2022/07/09 09:55:42;;;;;;;;;;;32.00;78.00;;;;;;5061732;28;19924;-76
2022/07/09 09:58:10;;;;;;;;;;;31.60;78.00;;;;;;5057976;28;19969;-75
2022/07/09 10:00:37;;;;;;;;;;;31.00;79.00;;;;;;5060679;28;19986;-76
2022/07/09 10:03:04;;;;;;;;;;;30.70;79.50;;;;;;5039040;28;19932;-76
2022/07/09 10:05:30;;;;;;;;;;;30.40;79.60;;;;;;5036498;28;19940;-76
2022/07/09 10:07:57;;;;;;;;;;;30.20;80.60;;;;;;5031899;28;20445;-76
2022/07/09 10:10:24;;;;;;;;;;;29.90;81.50;;;;;;5053664;28;19924;-76
2022/07/09 10:12:50;;;;;;;;;;;29.60;81.50;;;;;;5063412;28;19920;-76
2022/07/09 10:15:23;;;;;;;;;;;29.30;81.60;;;;;;5064542;28;19928;-80
2022/07/09 10:17:50;;;;;;;;;;;29.10;82.70;;;;;;5070288;28;20019;-80
2022/07/09 10:20:17;;;;;;;;;;;28.80;83.50;;;;;;5041152;28;19934;-79
2022/07/09 10:22:44;;;;;;;;;;;28.70;84.60;;;;;;5060343;28;20382;-78
2022/07/09 10:25:23;;;;;;;;;;;28.60;84.80;;;;;;5073095;28;20396;-78
2022/07/09 10:27:50;;;;;;;;;;;28.70;85.20;;;;;;5070824;28;20007;-81
2022/07/09 10:30:25;;;;;;;;;;;28.80;84.80;;;;;;5057399;28;20389;-80
2022/07/09 10:33:07;;;;;;;;;;;28.90;83.50;;;;;;5050097;28;19927;-78
2022/07/09 10:35:44;;;;;;;;;;;28.90;83.50;;;;;;5051161;28;20035;-80
2022/07/09 10:38:11;;;;;;;;;;;28.90;84.50;;;;;;5052051;28;19920;-78
2022/07/09 10:40:42;;;;;;;;;;;28.90;84.40;;;;;;5052834;28;19938;-78
2022/07/09 10:43:09;;;;;;;;;;;28.90;83.30;;;;;;5070054;28;19976;-83
2022/07/09 10:45:41;;;;;;;;;;;28.90;83.90;;;;;;5050871;28;19950;-77
2022/07/09 10:48:09;;;;;;;;;;;28.80;84.70;;;;;;5070948;28;20286;-76
2022/07/09 10:50:39;;;;;;;;;;;28.80;85.10;;;;;;5066977;28;19971;-78
2022/07/09 10:53:06;;;;;;;;;;;29.00;83.80;;;;;;5054978;28;20414;-77
2022/07/09 10:55:32;;;;;;;;;;;29.00;84.40;;;;;;5071801;28;19932;-77
2022/07/09 10:57:59;;;;;;;;;;;29.10;84.40;;;;;;5072370;28;20027;-77
2022/07/09 11:00:29;;;;;;;;;;;29.20;84.40;;;;;;5066914;28;19928;-77
2022/07/09 11:02:57;;;;;;;;;;;29.20;84.50;;;;;;5075039;28;19931;-76
2022/07/09 11:05:30;;;;;;;;;;;29.40;83.80;;;;;;5076699;28;19924;-77
2022/07/09 11:08:01;;;;;;;;;;;29.50;84.80;;;;;;5078893;28;19921;-77
2022/07/09 11:10:28;;;;;;;;;;;29.70;84.50;;;;;;5076908;28;19933;-76
2022/07/09 11:12:55;;;;;;;;;;;29.80;84.10;;;;;;5077614;28;19931;-77
2022/07/09 11:15:23;;;;;;;;;;;30.00;84.20;;;;;;5041921;28;20324;-76
2022/07/09 11:18:00;;;;;;;;;;;29.90;84.50;;;;;;5065789;28;20412;-77
2022/07/09 11:20:27;;;;;;;;;;;29.90;83.80;;;;;;5064433;28;20309;-76
2022/07/09 11:22:56;;;;;;;;;;;29.80;84.10;;;;;;5071436;28;19931;-77
2022/07/09 11:25:25;;;;;;;;;;;29.70;84.20;;;;;;5060906;28;19964;-77
2022/07/09 11:27:52;;;;;;;;;;;29.40;84.10;;;;;;5062565;28;19936;-77
2022/07/09 11:30:19;;;;;;;;;;;29.10;84.40;;;;;;5075100;28;20306;-76
2022/07/09 11:32:46;;;;;;;;;;;28.80;84.90;;;;;;5071764;28;19924;-77
2022/07/09 11:35:24;;;;;;;;;;;28.50;85.70;;;;;;5064827;28;19927;-78
2022/07/09 11:37:51;;;;;;;;;;;28.10;86.70;;;;;;5063195;28;19921;-77
2022/07/09 11:40:18;;;;;;;;;;;27.80;88.10;;;;;;5072626;28;19971;-75
2022/07/09 11:42:45;;;;;;;;;;;27.50;89.00;;;;;;5070299;28;19950;-76
2022/07/09 11:45:11;;;;;;;;;;;27.50;89.70;;;;;;5074941;28;20238;-75
2022/07/09 11:47:39;;;;;;;;;;;27.40;90.00;;;;;;5059248;28;19924;-77
2022/07/09 11:50:07;;;;;;;;;;;27.20;90.20;;;;;;5060469;28;19924;-75
2022/07/09 11:52:35;;;;;;;;;;;27.20;90.40;;;;;;5071290;28;20456;-75
2022/07/09 11:55:04;;;;;;;;;;;26.80;90.50;;;;;;5073377;28;19924;-75
2022/07/09 11:57:32;;;;;;;;;;;27.20;90.90;;;;;;5056773;28;19924;-75
2022/07/09 11:59:59;;;;;;;;;;;27.40;91.00;;;;;;5060126;28;19943;-75
2022/07/09 12:02:26;;;;;;;;;;;27.60;91.10;;;;;;5060954;28;19920;-75
2022/07/09 12:04:53;;;;;;;;;;;28.00;90.80;;;;;;5051269;28;20023;-76
2022/07/09 12:07:20;;;;;;;;;;;28.10;90.60;;;;;;5071985;28;19938;-77
2022/07/09 12:09:58;;;;;;;;;;;28.30;90.60;;;;;;5038964;28;21405;-77
2022/07/09 12:12:25;;;;;;;;;;;28.50;90.60;;;;;;5069330;28;20264;-77
2022/07/09 12:14:55;;;;;;;;;;;29.00;90.40;;;;;;5064373;28;19928;-77
2022/07/09 12:17:24;;;;;;;;;;;29.40;90.10;;;;;;5043875;28;19963;-78
2022/07/09 12:19:51;;;;;;;;;;;29.40;89.40;;;;;;5049607;28;19924;-76
2022/07/09 12:22:19;;;;;;;;;;;29.40;88.70;;;;;;5059014;28;19921;-78
2022/07/09 12:24:46;;;;;;;;;;;29.40;88.30;;;;;;5065112;28;19921;-77
2022/07/09 12:27:14;;;;;;;;;;;29.40;88.60;;;;;;5066616;28;19928;-77
2022/07/09 12:29:42;;;;;;;;;;;29.40;88.60;;;;;;5064376;28;19932;-78
2022/07/09 12:32:08;;;;;;;;;;;29.30;88.30;;;;;;5069014;28;19932;-77
2022/07/09 12:34:35;;;;;;;;;;;29.00;88.00;;;;;;5061109;28;19924;-77
2022/07/09 12:37:02;;;;;;;;;;;28.80;89.00;;;;;;5069868;28;19931;-77
2022/07/09 12:39:30;;;;;;;;;;;28.50;89.10;;;;;;5061595;28;20388;-76
2022/07/09 12:41:59;;;;;;;;;;;27.90;89.20;;;;;;5071158;28;19920;-77
2022/07/09 12:44:29;;;;;;;;;;;27.30;90.20;;;;;;5061536;28;20366;-76
2022/07/09 12:46:56;;;;;;;;;;;26.70;90.70;;;;;;5044669;28;20041;-76
2022/07/09 12:49:23;;;;;;;;;;;26.30;91.30;;;;;;5048694;28;19920;-76
2022/07/09 12:51:49;;;;;;;;;;;25.80;91.80;;;;;;5058685;28;20346;-76
2022/07/09 12:54:16;;;;;;;;;;;25.40;92.20;;;;;;5059139;28;20409;-77
2022/07/09 12:56:43;;;;;;;;;;;25.10;92.80;;;;;;5068131;28;19931;-76
2022/07/09 12:59:10;;;;;;;;;;;24.70;93.50;;;;;;5061689;28;20336;-77
2022/07/09 13:01:38;;;;;;;;;;;24.50;94.10;;;;;;5060035;28;19921;-76
2022/07/09 13:04:05;;;;;;;;;;;24.40;95.00;;;;;;5061968;28;19970;-75
2022/07/09 13:06:34;;;;;;;;;;;24.50;95.50;;;;;;5065563;28;19929;-77
2022/07/09 13:09:01;;;;;;;;;;;24.80;95.90;;;;;;5043940;28;20560;-77
2022/07/09 13:11:28;;;;;;;;;;;25.20;96.20;;;;;;5061171;28;19920;-76
2022/07/09 13:13:55;;;;;;;;;;;25.80;96.00;;;;;;5060826;28;20196;-76
2022/07/09 13:16:22;;;;;;;;;;;25.80;96.40;;;;;;5059551;28;19928;-75
2022/07/09 13:18:51;;;;;;;;;;;26.30;96.20;;;;;;5045936;28;19926;-78
2022/07/09 13:21:17;;;;;;;;;;;26.70;95.90;;;;;;5066606;28;20312;-80
2022/07/09 13:23:47;;;;;;;;;;;27.00;95.30;;;;;;5062738;28;19928;-82
2022/07/09 13:26:15;;;;;;;;;;;27.10;95.80;;;;;;5062506;28;19920;-77
2022/07/09 13:28:42;;;;;;;;;;;27.50;95.40;;;;;;5063934;28;19928;-82
2022/07/09 13:31:11;;;;;;;;;;;27.70;94.80;;;;;;5066478;28;19977;-78
2022/07/09 13:33:38;;;;;;;;;;;27.90;94.30;;;;;;5041645;28;19932;-78
2022/07/09 13:36:07;;;;;;;;;;;28.00;94.20;;;;;;5061021;28;19920;-79
2022/07/09 13:38:34;;;;;;;;;;;28.30;94.20;;;;;;5070322;28;19924;-79
2022/07/09 13:41:00;;;;;;;;;;;28.50;93.60;;;;;;5061361;28;19978;-79
2022/07/09 13:43:27;;;;;;;;;;;29.10;93.60;;;;;;5050438;28;19936;-78
2022/07/09 13:45:57;;;;;;;;;;;29.10;93.50;;;;;;5043891;28;20301;-79
2022/07/09 13:48:25;;;;;;;;;;;29.40;92.30;;;;;;5062501;28;19928;-80
2022/07/09 13:50:51;;;;;;;;;;;29.50;92.40;;;;;;5048123;28;20388;-78
2022/07/09 13:53:20;;;;;;;;;;;29.50;92.00;;;;;;5059887;28;19928;-82
2022/07/09 13:55:47;;;;;;;;;;;29.50;91.80;;;;;;5044304;28;20379;-79
2022/07/09 13:58:14;;;;;;;;;;;29.50;91.70;;;;;;5060658;28;19921;-78
2022/07/09 14:00:40;;;;;;;;;;;29.70;91.70;;;;;;5050922;28;19924;-80
2022/07/09 14:03:07;;;;;;;;;;;29.40;90.70;;;;;;5050501;28;20403;-78
2022/07/09 14:05:36;;;;;;;;;;;29.50;91.00;;;;;;5057786;28;19928;-78
2022/07/09 14:08:03;;;;;;;;;;;29.40;90.90;;;;;;5040926;28;19935;-78
2022/07/09 14:10:32;;;;;;;;;;;29.50;90.70;;;;;;5062718;28;20396;-77
2022/07/09 14:12:59;;;;;;;;;;;29.60;90.20;;;;;;5063626;28;19925;-81
2022/07/09 14:15:26;;;;;;;;;;;29.60;89.70;;;;;;5040984;28;19920;-77
2022/07/09 14:17:52;;;;;;;;;;;29.50;89.70;;;;;;5060169;28;19929;-79
2022/07/09 14:20:20;;;;;;;;;;;30.60;90.00;;;;;;5066117;28;19936;-77
2022/07/09 14:22:46;;;;;;;;;;;29.50;89.60;;;;;;5059618;28;19924;-79
2022/07/09 14:25:13;;;;;;;;;;;29.40;87.80;;;;;;5069984;28;20237;-80
2022/07/09 14:27:41;;;;;;;;;;;29.50;88.70;;;;;;5070189;28;19932;-78
2022/07/09 14:30:09;;;;;;;;;;;28.80;88.80;;;;;;5049123;28;19939;-79
2022/07/09 14:32:36;;;;;;;;;;;28.70;89.60;;;;;;5062101;28;19978;-79
2022/07/09 14:35:03;;;;;;;;;;;28.60;88.80;;;;;;5041931;28;20482;-79
2022/07/09 14:37:29;;;;;;;;;;;28.40;89.00;;;;;;5063312;28;19931;-79
2022/07/09 14:39:56;;;;;;;;;;;28.20;88.80;;;;;;5058946;28;20215;-78
2022/07/09 14:42:23;;;;;;;;;;;27.90;88.90;;;;;;5076138;28;19929;-79